sensor_id;sensor_type;location;lat;lon;timestamp;P1;durP1;ratioP1;P2;durP2;ratioP2
41219;SDS011;26951;47.338;9.196;2022-09-29T00:01:32;0.40;;;0.30;;
41219;SDS011;26951;47.338;9.196;2022-09-29T00:04:16;0.52;;;0.30;;
41219;SDS011;26951;47.338;9.196;2022-09-29T00:07:00;0.50;;;0.38;;
41219;SDS011;26951;47.338;9.196;2022-09-29T00:09:44;0.13;;;0.13;;
41219;SDS011;26951;47.338;9.196;2022-09-29T00:12:29;0.57;;;0.40;;
41219;SDS011;26951;47.338;9.196;2022-09-29T00:15:13;0.15;;;0.13;;
41219;SDS011;26951;47.338;9.196;2022-09-29T00:17:57;0.30;;;0.30;;
41219;SDS011;26951;47.338;9.196;2022-09-29T00:20:42;0.30;;;0.30;;
41219;SDS011;26951;47.338;9.196;2022-09-29T00:23:27;0.50;;;0.30;;
41219;SDS011;26951;47.338;9.196;2022-09-29T00:26:16;0.10;;;0.10;;
41219;SDS011;26951;47.338;9.196;2022-09-29T00:29:02;0.20;;;0.20;;
41219;SDS011;26951;47.338;9.196;2022-09-29T00:31:46;0.28;;;0.28;;
41219;SDS011;26951;47.338;9.196;2022-09-29T00:34:31;0.20;;;0.20;;
41219;SDS011;26951;47.338;9.196;2022-09-29T00:37:15;2.15;;;0.40;;
41219;SDS011;26951;47.338;9.196;2022-09-29T00:39:59;0.20;;;0.20;;
41219;SDS011;26951;47.338;9.196;2022-09-29T00:42:44;1.05;;;0.85;;
41219;SDS011;26951;47.338;9.196;2022-09-29T00:45:28;0.35;;;0.22;;
41219;SDS011;26951;47.338;9.196;2022-09-29T00:48:13;0.47;;;0.20;;
41219;SDS011;26951;47.338;9.196;2022-09-29T00:51:01;0.45;;;0.30;;
41219;SDS011;26951;47.338;9.196;2022-09-29T00:53:46;0.30;;;0.30;;
41219;SDS011;26951;47.338;9.196;2022-09-29T00:56:32;0.20;;;0.20;;
41219;SDS011;26951;47.338;9.196;2022-09-29T00:59:20;0.30;;;0.30;;
41219;SDS011;26951;47.338;9.196;2022-09-29T01:02:12;0.10;;;0.10;;
41219;SDS011;26951;47.338;9.196;2022-09-29T01:04:57;0.20;;;0.20;;
41219;SDS011;26951;47.338;9.196;2022-09-29T01:07:43;0.10;;;0.10;;
41219;SDS011;26951;47.338;9.196;2022-09-29T01:10:28;0.10;;;0.10;;
41219;SDS011;26951;47.338;9.196;2022-09-29T01:13:12;0.20;;;0.20;;
41219;SDS011;26951;47.338;9.196;2022-09-29T01:15:57;0.20;;;0.20;;
41219;SDS011;26951;47.338;9.196;2022-09-29T01:18:41;0.30;;;0.20;;
41219;SDS011;26951;47.338;9.196;2022-09-29T01:39:39;1.17;;;0.20;;
41219;SDS011;26951;47.338;9.196;2022-09-29T01:42:31;0.20;;;0.20;;
41219;SDS011;26951;47.338;9.196;2022-09-29T01:45:28;0.10;;;0.10;;
41219;SDS011;26951;47.338;9.196;2022-09-29T01:48:24;0.20;;;0.20;;
41219;SDS011;26951;47.338;9.196;2022-09-29T01:51:14;0.10;;;0.10;;
41219;SDS011;26951;47.338;9.196;2022-09-29T01:54:03;0.20;;;0.10;;
41219;SDS011;26951;47.338;9.196;2022-09-29T01:56:55;0.10;;;0.10;;
41219;SDS011;26951;47.338;9.196;2022-09-29T01:59:52;0.30;;;0.28;;
41219;SDS011;26951;47.338;9.196;2022-09-29T02:02:43;0.10;;;0.10;;
41219;SDS011;26951;47.338;9.196;2022-09-29T02:05:32;0.20;;;0.20;;
41219;SDS011;26951;47.338;9.196;2022-09-29T02:08:27;0.30;;;0.20;;
41219;SDS011;26951;47.338;9.196;2022-09-29T02:11:16;0.20;;;0.20;;
41219;SDS011;26951;47.338;9.196;2022-09-29T02:14:03;0.57;;;0.30;;
41219;SDS011;26951;47.338;9.196;2022-09-29T02:20:02;0.20;;;0.20;;
41219;SDS011;26951;47.338;9.196;2022-09-29T02:22:47;1.38;;;0.20;;
41219;SDS011;26951;47.338;9.196;2022-09-29T02:25:34;0.17;;;0.17;;
41219;SDS011;26951;47.338;9.196;2022-09-29T02:28:21;0.20;;;0.20;;
41219;SDS011;26951;47.338;9.196;2022-09-29T02:31:05;0.17;;;0.17;;
41219;SDS011;26951;47.338;9.196;2022-09-29T02:33:50;0.17;;;0.17;;
41219;SDS011;26951;47.338;9.196;2022-09-29T02:36:39;0.13;;;0.13;;
41219;SDS011;26951;47.338;9.196;2022-09-29T02:39:53;0.13;;;0.13;;
41219;SDS011;26951;47.338;9.196;2022-09-29T02:43:03;0.10;;;0.10;;
41219;SDS011;26951;47.338;9.196;2022-09-29T02:46:08;0.10;;;0.10;;
41219;SDS011;26951;47.338;9.196;2022-09-29T02:52:40;1.90;;;0.20;;
41219;SDS011;26951;47.338;9.196;2022-09-29T02:59:09;1.63;;;0.40;;
41219;SDS011;26951;47.338;9.196;2022-09-29T03:01:57;0.52;;;0.40;;
41219;SDS011;26951;47.338;9.196;2022-09-29T03:04:41;0.20;;;0.20;;
41219;SDS011;26951;47.338;9.196;2022-09-29T03:07:25;0.38;;;0.10;;
41219;SDS011;26951;47.338;9.196;2022-09-29T03:10:10;0.25;;;0.20;;
41219;SDS011;26951;47.338;9.196;2022-09-29T03:12:55;0.60;;;0.10;;
41219;SDS011;26951;47.338;9.196;2022-09-29T03:15:40;0.22;;;0.13;;
41219;SDS011;26951;47.338;9.196;2022-09-29T03:18:24;0.22;;;0.22;;
41219;SDS011;26951;47.338;9.196;2022-09-29T03:21:08;0.20;;;0.20;;
41219;SDS011;26951;47.338;9.196;2022-09-29T03:23:52;0.88;;;0.22;;
41219;SDS011;26951;47.338;9.196;2022-09-29T03:26:36;0.20;;;0.17;;
41219;SDS011;26951;47.338;9.196;2022-09-29T03:29:20;0.35;;;0.35;;
41219;SDS011;26951;47.338;9.196;2022-09-29T03:32:04;0.20;;;0.20;;
41219;SDS011;26951;47.338;9.196;2022-09-29T03:34:48;0.10;;;0.10;;
41219;SDS011;26951;47.338;9.196;2022-09-29T03:37:33;0.20;;;0.20;;
41219;SDS011;26951;47.338;9.196;2022-09-29T03:40:17;0.10;;;0.10;;
41219;SDS011;26951;47.338;9.196;2022-09-29T03:43:01;0.40;;;0.20;;
41219;SDS011;26951;47.338;9.196;2022-09-29T03:45:49;1.38;;;0.20;;
41219;SDS011;26951;47.338;9.196;2022-09-29T03:48:33;0.40;;;0.13;;
41219;SDS011;26951;47.338;9.196;2022-09-29T03:51:18;0.30;;;0.13;;
41219;SDS011;26951;47.338;9.196;2022-09-29T03:54:02;0.20;;;0.20;;
41219;SDS011;26951;47.338;9.196;2022-09-29T03:56:46;0.30;;;0.30;;
41219;SDS011;26951;47.338;9.196;2022-09-29T03:59:30;0.30;;;0.30;;
41219;SDS011;26951;47.338;9.196;2022-09-29T04:02:14;0.20;;;0.20;;
41219;SDS011;26951;47.338;9.196;2022-09-29T04:05:00;0.32;;;0.30;;
41219;SDS011;26951;47.338;9.196;2022-09-29T04:07:45;0.40;;;0.32;;
41219;SDS011;26951;47.338;9.196;2022-09-29T04:10:29;0.82;;;0.40;;
41219;SDS011;26951;47.338;9.196;2022-09-29T04:13:14;0.40;;;0.40;;
41219;SDS011;26951;47.338;9.196;2022-09-29T04:15:59;0.40;;;0.40;;
41219;SDS011;26951;47.338;9.196;2022-09-29T04:18:44;0.70;;;0.40;;
41219;SDS011;26951;47.338;9.196;2022-09-29T04:21:29;1.23;;;0.20;;
41219;SDS011;26951;47.338;9.196;2022-09-29T04:24:13;0.45;;;0.30;;
41219;SDS011;26951;47.338;9.196;2022-09-29T04:26:57;0.47;;;0.30;;
41219;SDS011;26951;47.338;9.196;2022-09-29T04:29:41;0.20;;;0.20;;
41219;SDS011;26951;47.338;9.196;2022-09-29T04:32:25;0.80;;;0.40;;
41219;SDS011;26951;47.338;9.196;2022-09-29T04:35:09;0.28;;;0.20;;
41219;SDS011;26951;47.338;9.196;2022-09-29T04:37:57;0.30;;;0.30;;
41219;SDS011;26951;47.338;9.196;2022-09-29T04:40:42;0.40;;;0.40;;
41219;SDS011;26951;47.338;9.196;2022-09-29T04:43:26;0.85;;;0.80;;
41219;SDS011;26951;47.338;9.196;2022-09-29T04:46:10;0.98;;;0.50;;
41219;SDS011;26951;47.338;9.196;2022-09-29T04:51:40;0.45;;;0.45;;
41219;SDS011;26951;47.338;9.196;2022-09-29T04:54:24;0.63;;;0.63;;
41219;SDS011;26951;47.338;9.196;2022-09-29T04:57:16;0.60;;;0.60;;
41219;SDS011;26951;47.338;9.196;2022-09-29T05:00:00;0.52;;;0.52;;
41219;SDS011;26951;47.338;9.196;2022-09-29T05:02:45;0.80;;;0.80;;
41219;SDS011;26951;47.338;9.196;2022-09-29T05:05:29;1.58;;;0.80;;
41219;SDS011;26951;47.338;9.196;2022-09-29T05:08:13;0.73;;;0.70;;
41219;SDS011;26951;47.338;9.196;2022-09-29T05:10:57;0.60;;;0.60;;
41219;SDS011;26951;47.338;9.196;2022-09-29T05:13:42;1.00;;;0.77;;
41219;SDS011;26951;47.338;9.196;2022-09-29T05:16:26;1.00;;;0.93;;
41219;SDS011;26951;47.338;9.196;2022-09-29T05:19:10;0.60;;;0.60;;
41219;SDS011;26951;47.338;9.196;2022-09-29T05:21:54;0.70;;;0.70;;
41219;SDS011;26951;47.338;9.196;2022-09-29T05:24:38;0.65;;;0.65;;
41219;SDS011;26951;47.338;9.196;2022-09-29T05:27:23;0.50;;;0.50;;
41219;SDS011;26951;47.338;9.196;2022-09-29T05:30:07;0.65;;;0.55;;
41219;SDS011;26951;47.338;9.196;2022-09-29T05:32:51;0.60;;;0.60;;
41219;SDS011;26951;47.338;9.196;2022-09-29T05:35:36;0.50;;;0.50;;
41219;SDS011;26951;47.338;9.196;2022-09-29T05:38:20;0.50;;;0.50;;
41219;SDS011;26951;47.338;9.196;2022-09-29T05:41:06;0.57;;;0.57;;
41219;SDS011;26951;47.338;9.196;2022-09-29T05:43:54;1.52;;;0.70;;
41219;SDS011;26951;47.338;9.196;2022-09-29T05:46:39;0.80;;;0.68;;
41219;SDS011;26951;47.338;9.196;2022-09-29T05:49:23;0.55;;;0.55;;
41219;SDS011;26951;47.338;9.196;2022-09-29T05:52:07;6.30;;;3.65;;
41219;SDS011;26951;47.338;9.196;2022-09-29T05:54:51;4.28;;;2.50;;
41219;SDS011;26951;47.338;9.196;2022-09-29T05:57:36;1.40;;;1.20;;
41219;SDS011;26951;47.338;9.196;2022-09-29T06:00:20;0.93;;;0.88;;
41219;SDS011;26951;47.338;9.196;2022-09-29T06:03:04;1.33;;;0.80;;
41219;SDS011;26951;47.338;9.196;2022-09-29T06:05:48;0.82;;;0.70;;
41219;SDS011;26951;47.338;9.196;2022-09-29T06:08:32;0.70;;;0.70;;
41219;SDS011;26951;47.338;9.196;2022-09-29T06:14:02;0.85;;;0.80;;
41219;SDS011;26951;47.338;9.196;2022-09-29T06:16:47;1.40;;;1.15;;
41219;SDS011;26951;47.338;9.196;2022-09-29T06:19:32;1.00;;;1.00;;
41219;SDS011;26951;47.338;9.196;2022-09-29T06:22:16;1.45;;;1.20;;
41219;SDS011;26951;47.338;9.196;2022-09-29T06:25:02;1.83;;;1.55;;
41219;SDS011;26951;47.338;9.196;2022-09-29T06:27:46;1.20;;;1.10;;
41219;SDS011;26951;47.338;9.196;2022-09-29T06:30:30;1.02;;;1.00;;
41219;SDS011;26951;47.338;9.196;2022-09-29T06:33:15;0.80;;;0.80;;
41219;SDS011;26951;47.338;9.196;2022-09-29T06:36:00;1.17;;;1.00;;
41219;SDS011;26951;47.338;9.196;2022-09-29T06:39:09;1.63;;;1.52;;
41219;SDS011;26951;47.338;9.196;2022-09-29T06:41:56;1.48;;;1.38;;
41219;SDS011;26951;47.338;9.196;2022-09-29T06:44:41;1.35;;;1.25;;
41219;SDS011;26951;47.338;9.196;2022-09-29T06:47:25;2.47;;;1.40;;
41219;SDS011;26951;47.338;9.196;2022-09-29T06:50:10;2.30;;;1.80;;
41219;SDS011;26951;47.338;9.196;2022-09-29T06:52:54;3.15;;;1.70;;
41219;SDS011;26951;47.338;9.196;2022-09-29T06:55:38;2.92;;;2.03;;
41219;SDS011;26951;47.338;9.196;2022-09-29T06:58:22;2.35;;;1.98;;
41219;SDS011;26951;47.338;9.196;2022-09-29T07:01:07;3.13;;;2.40;;
41219;SDS011;26951;47.338;9.196;2022-09-29T07:03:52;2.85;;;2.25;;
41219;SDS011;26951;47.338;9.196;2022-09-29T07:06:37;3.70;;;2.50;;
41219;SDS011;26951;47.338;9.196;2022-09-29T07:09:21;2.75;;;2.05;;
41219;SDS011;26951;47.338;9.196;2022-09-29T07:12:05;2.13;;;1.60;;
41219;SDS011;26951;47.338;9.196;2022-09-29T07:14:50;2.83;;;1.70;;
41219;SDS011;26951;47.338;9.196;2022-09-29T07:17:34;2.28;;;1.85;;
41219;SDS011;26951;47.338;9.196;2022-09-29T07:20:18;2.20;;;1.58;;
41219;SDS011;26951;47.338;9.196;2022-09-29T07:23:02;1.90;;;1.42;;
41219;SDS011;26951;47.338;9.196;2022-09-29T07:25:47;2.67;;;1.70;;
41219;SDS011;26951;47.338;9.196;2022-09-29T07:28:31;1.58;;;1.40;;
41219;SDS011;26951;47.338;9.196;2022-09-29T07:31:17;2.10;;;1.50;;
41219;SDS011;26951;47.338;9.196;2022-09-29T07:34:02;1.70;;;1.60;;
41219;SDS011;26951;47.338;9.196;2022-09-29T07:36:46;2.13;;;1.90;;
41219;SDS011;26951;47.338;9.196;2022-09-29T07:39:30;2.25;;;2.05;;
41219;SDS011;26951;47.338;9.196;2022-09-29T07:42:14;1.95;;;1.75;;
41219;SDS011;26951;47.338;9.196;2022-09-29T07:45:00;2.15;;;1.90;;
41219;SDS011;26951;47.338;9.196;2022-09-29T07:47:44;2.00;;;1.83;;
41219;SDS011;26951;47.338;9.196;2022-09-29T07:50:28;2.25;;;1.60;;
41219;SDS011;26951;47.338;9.196;2022-09-29T07:53:13;2.30;;;1.60;;
41219;SDS011;26951;47.338;9.196;2022-09-29T07:56:04;2.28;;;1.65;;
41219;SDS011;26951;47.338;9.196;2022-09-29T07:58:50;1.77;;;1.30;;
41219;SDS011;26951;47.338;9.196;2022-09-29T08:01:34;1.23;;;1.13;;
41219;SDS011;26951;47.338;9.196;2022-09-29T08:04:18;1.35;;;1.15;;
41219;SDS011;26951;47.338;9.196;2022-09-29T08:07:02;1.13;;;1.05;;
41219;SDS011;26951;47.338;9.196;2022-09-29T08:09:46;1.20;;;1.10;;
41219;SDS011;26951;47.338;9.196;2022-09-29T08:12:31;1.30;;;1.20;;
41219;SDS011;26951;47.338;9.196;2022-09-29T08:15:15;1.58;;;1.30;;
41219;SDS011;26951;47.338;9.196;2022-09-29T08:18:00;2.05;;;1.65;;
41219;SDS011;26951;47.338;9.196;2022-09-29T08:20:46;1.73;;;1.30;;
41219;SDS011;26951;47.338;9.196;2022-09-29T08:23:33;1.20;;;1.10;;
41219;SDS011;26951;47.338;9.196;2022-09-29T08:26:21;1.50;;;1.02;;
41219;SDS011;26951;47.338;9.196;2022-09-29T08:29:06;3.10;;;1.23;;
41219;SDS011;26951;47.338;9.196;2022-09-29T08:31:50;1.65;;;1.45;;
41219;SDS011;26951;47.338;9.196;2022-09-29T08:34:34;1.40;;;1.30;;
41219;SDS011;26951;47.338;9.196;2022-09-29T08:37:19;1.80;;;1.50;;
41219;SDS011;26951;47.338;9.196;2022-09-29T08:40:03;3.10;;;2.20;;
41219;SDS011;26951;47.338;9.196;2022-09-29T08:46:22;1.30;;;1.20;;
41219;SDS011;26951;47.338;9.196;2022-09-29T08:49:23;1.10;;;1.00;;
41219;SDS011;26951;47.338;9.196;2022-09-29T08:52:14;0.70;;;0.63;;
41219;SDS011;26951;47.338;9.196;2022-09-29T08:57:59;1.30;;;0.95;;
41219;SDS011;26951;47.338;9.196;2022-09-29T09:00:48;1.65;;;1.55;;
41219;SDS011;26951;47.338;9.196;2022-09-29T09:06:58;1.63;;;1.52;;
41219;SDS011;26951;47.338;9.196;2022-09-29T09:10:12;1.67;;;1.58;;
41219;SDS011;26951;47.338;9.196;2022-09-29T09:13:10;1.85;;;1.70;;
41219;SDS011;26951;47.338;9.196;2022-09-29T09:16:30;2.35;;;1.73;;
41219;SDS011;26951;47.338;9.196;2022-09-29T09:20:07;1.90;;;1.77;;
41219;SDS011;26951;47.338;9.196;2022-09-29T09:22:56;1.52;;;1.42;;
41219;SDS011;26951;47.338;9.196;2022-09-29T09:25:46;1.70;;;1.60;;
41219;SDS011;26951;47.338;9.196;2022-09-29T09:28:34;1.70;;;1.60;;
41219;SDS011;26951;47.338;9.196;2022-09-29T09:34:27;2.38;;;1.70;;
41219;SDS011;26951;47.338;9.196;2022-09-29T09:37:36;1.52;;;1.30;;
41219;SDS011;26951;47.338;9.196;2022-09-29T09:40:25;3.03;;;1.85;;
41219;SDS011;26951;47.338;9.196;2022-09-29T09:43:17;1.55;;;1.45;;
41219;SDS011;26951;47.338;9.196;2022-09-29T09:49:23;1.65;;;1.48;;
41219;SDS011;26951;47.338;9.196;2022-09-29T09:52:43;2.35;;;1.70;;
41219;SDS011;26951;47.338;9.196;2022-09-29T09:55:30;1.58;;;1.48;;
41219;SDS011;26951;47.338;9.196;2022-09-29T09:58:25;1.90;;;1.77;;
41219;SDS011;26951;47.338;9.196;2022-09-29T10:01:20;2.38;;;1.90;;
41219;SDS011;26951;47.338;9.196;2022-09-29T10:04:04;2.67;;;1.95;;
41219;SDS011;26951;47.338;9.196;2022-09-29T10:06:48;2.10;;;1.90;;
41219;SDS011;26951;47.338;9.196;2022-09-29T10:09:33;2.53;;;2.17;;
41219;SDS011;26951;47.338;9.196;2022-09-29T10:12:18;4.20;;;2.00;;
41219;SDS011;26951;47.338;9.196;2022-09-29T10:15:05;2.72;;;1.90;;
41219;SDS011;26951;47.338;9.196;2022-09-29T10:18:08;2.42;;;1.67;;
41219;SDS011;26951;47.338;9.196;2022-09-29T10:21:39;1.80;;;1.70;;
41219;SDS011;26951;47.338;9.196;2022-09-29T10:24:22;1.95;;;1.75;;
41219;SDS011;26951;47.338;9.196;2022-09-29T10:27:06;3.38;;;1.90;;
41219;SDS011;26951;47.338;9.196;2022-09-29T10:29:51;1.60;;;1.50;;
41219;SDS011;26951;47.338;9.196;2022-09-29T10:32:37;1.30;;;1.20;;
41219;SDS011;26951;47.338;9.196;2022-09-29T10:35:22;1.70;;;1.60;;
41219;SDS011;26951;47.338;9.196;2022-09-29T10:38:16;1.20;;;1.10;;
41219;SDS011;26951;47.338;9.196;2022-09-29T10:41:04;1.35;;;1.25;;
41219;SDS011;26951;47.338;9.196;2022-09-29T10:43:49;1.23;;;1.13;;
41219;SDS011;26951;47.338;9.196;2022-09-29T10:46:50;1.40;;;1.30;;
41219;SDS011;26951;47.338;9.196;2022-09-29T10:49:36;1.13;;;1.10;;
41219;SDS011;26951;47.338;9.196;2022-09-29T10:52:22;1.38;;;1.27;;
41219;SDS011;26951;47.338;9.196;2022-09-29T10:55:14;1.55;;;1.45;;
41219;SDS011;26951;47.338;9.196;2022-09-29T10:58:04;1.40;;;1.30;;
41219;SDS011;26951;47.338;9.196;2022-09-29T11:01:08;1.60;;;1.50;;
41219;SDS011;26951;47.338;9.196;2022-09-29T11:03:55;1.60;;;1.50;;
41219;SDS011;26951;47.338;9.196;2022-09-29T11:06:46;2.22;;;1.67;;
41219;SDS011;26951;47.338;9.196;2022-09-29T11:09:36;1.70;;;1.60;;
41219;SDS011;26951;47.338;9.196;2022-09-29T11:12:32;1.23;;;1.13;;
41219;SDS011;26951;47.338;9.196;2022-09-29T11:15:29;1.65;;;1.20;;
41219;SDS011;26951;47.338;9.196;2022-09-29T11:18:25;1.40;;;1.25;;
41219;SDS011;26951;47.338;9.196;2022-09-29T11:21:36;1.20;;;1.10;;
41219;SDS011;26951;47.338;9.196;2022-09-29T11:28:03;1.25;;;1.13;;
41219;SDS011;26951;47.338;9.196;2022-09-29T11:31:20;1.25;;;1.10;;
41219;SDS011;26951;47.338;9.196;2022-09-29T11:53:30;0.90;;;0.90;;
41219;SDS011;26951;47.338;9.196;2022-09-29T11:56:58;2.63;;;1.40;;
41219;SDS011;26951;47.338;9.196;2022-09-29T12:00:03;0.88;;;0.88;;
41219;SDS011;26951;47.338;9.196;2022-09-29T12:06:15;1.30;;;1.08;;
41219;SDS011;26951;47.338;9.196;2022-09-29T12:12:37;2.05;;;1.20;;
41219;SDS011;26951;47.338;9.196;2022-09-29T12:15:40;1.00;;;1.00;;
41219;SDS011;26951;47.338;9.196;2022-09-29T12:18:37;1.13;;;1.00;;
41219;SDS011;26951;47.338;9.196;2022-09-29T12:21:36;0.90;;;0.90;;
41219;SDS011;26951;47.338;9.196;2022-09-29T12:24:34;2.53;;;1.90;;
41219;SDS011;26951;47.338;9.196;2022-09-29T12:27:23;1.70;;;1.50;;
41219;SDS011;26951;47.338;9.196;2022-09-29T12:39:35;1.40;;;1.30;;
41219;SDS011;26951;47.338;9.196;2022-09-29T12:48:39;1.17;;;1.08;;
41219;SDS011;26951;47.338;9.196;2022-09-29T12:51:36;1.20;;;1.10;;
41219;SDS011;26951;47.338;9.196;2022-09-29T12:54:30;1.65;;;1.15;;
41219;SDS011;26951;47.338;9.196;2022-09-29T12:57:22;1.13;;;1.02;;
41219;SDS011;26951;47.338;9.196;2022-09-29T13:00:11;1.50;;;1.10;;
41219;SDS011;26951;47.338;9.196;2022-09-29T13:03:00;1.55;;;1.30;;
41219;SDS011;26951;47.338;9.196;2022-09-29T13:06:30;1.23;;;1.13;;
41219;SDS011;26951;47.338;9.196;2022-09-29T13:19:04;1.52;;;1.30;;
41219;SDS011;26951;47.338;9.196;2022-09-29T13:25:37;2.55;;;1.83;;
41219;SDS011;26951;47.338;9.196;2022-09-29T13:28:46;2.60;;;1.65;;
41219;SDS011;26951;47.338;9.196;2022-09-29T13:31:34;2.13;;;1.52;;
41219;SDS011;26951;47.338;9.196;2022-09-29T13:34:31;2.08;;;1.73;;
41219;SDS011;26951;47.338;9.196;2022-09-29T13:37:17;1.63;;;1.25;;
41219;SDS011;26951;47.338;9.196;2022-09-29T13:40:07;1.30;;;1.20;;
41219;SDS011;26951;47.338;9.196;2022-09-29T13:43:00;1.63;;;1.52;;
41219;SDS011;26951;47.338;9.196;2022-09-29T13:45:48;1.60;;;1.50;;
41219;SDS011;26951;47.338;9.196;2022-09-29T13:48:33;2.65;;;2.35;;
41219;SDS011;26951;47.338;9.196;2022-09-29T13:51:23;1.48;;;1.38;;
41219;SDS011;26951;47.338;9.196;2022-09-29T13:54:13;1.48;;;1.38;;
41219;SDS011;26951;47.338;9.196;2022-09-29T14:02:40;3.50;;;1.95;;
41219;SDS011;26951;47.338;9.196;2022-09-29T14:08:18;2.53;;;2.33;;
41219;SDS011;26951;47.338;9.196;2022-09-29T14:11:17;2.38;;;1.45;;
41219;SDS011;26951;47.338;9.196;2022-09-29T14:14:14;1.65;;;1.55;;
41219;SDS011;26951;47.338;9.196;2022-09-29T14:28:11;1.20;;;0.90;;
41219;SDS011;26951;47.338;9.196;2022-09-29T14:31:01;1.27;;;1.10;;
41219;SDS011;26951;47.338;9.196;2022-09-29T14:33:46;1.42;;;1.30;;
41219;SDS011;26951;47.338;9.196;2022-09-29T14:36:32;1.17;;;0.98;;
41219;SDS011;26951;47.338;9.196;2022-09-29T14:39:16;1.00;;;0.90;;
41219;SDS011;26951;47.338;9.196;2022-09-29T14:42:02;1.83;;;1.27;;
41219;SDS011;26951;47.338;9.196;2022-09-29T14:44:48;1.30;;;1.15;;
41219;SDS011;26951;47.338;9.196;2022-09-29T14:48:00;2.40;;;1.40;;
41219;SDS011;26951;47.338;9.196;2022-09-29T14:51:30;0.95;;;0.85;;
41219;SDS011;26951;47.338;9.196;2022-09-29T15:00:29;1.67;;;1.10;;
41219;SDS011;26951;47.338;9.196;2022-09-29T15:03:30;2.15;;;1.33;;
41219;SDS011;26951;47.338;9.196;2022-09-29T15:06:20;2.10;;;1.55;;
41219;SDS011;26951;47.338;9.196;2022-09-29T15:09:14;2.22;;;1.40;;
41219;SDS011;26951;47.338;9.196;2022-09-29T15:12:11;2.80;;;1.35;;
41219;SDS011;26951;47.338;9.196;2022-09-29T15:14:57;1.80;;;1.60;;
41219;SDS011;26951;47.338;9.196;2022-09-29T15:17:52;2.38;;;1.80;;
41219;SDS011;26951;47.338;9.196;2022-09-29T15:20:59;3.10;;;2.80;;
41219;SDS011;26951;47.338;9.196;2022-09-29T15:24:05;4.13;;;3.10;;
41219;SDS011;26951;47.338;9.196;2022-09-29T15:27:04;3.05;;;2.53;;
41219;SDS011;26951;47.338;9.196;2022-09-29T15:29:55;2.30;;;2.00;;
41219;SDS011;26951;47.338;9.196;2022-09-29T15:32:40;2.88;;;2.17;;
41219;SDS011;26951;47.338;9.196;2022-09-29T15:35:24;2.83;;;2.25;;
41219;SDS011;26951;47.338;9.196;2022-09-29T15:40:53;3.78;;;3.00;;
41219;SDS011;26951;47.338;9.196;2022-09-29T15:43:40;2.40;;;1.70;;
41219;SDS011;26951;47.338;9.196;2022-09-29T15:46:46;1.98;;;1.77;;
41219;SDS011;26951;47.338;9.196;2022-09-29T15:49:32;2.20;;;1.90;;
41219;SDS011;26951;47.338;9.196;2022-09-29T15:52:16;2.33;;;1.70;;
41219;SDS011;26951;47.338;9.196;2022-09-29T15:55:04;2.53;;;1.80;;
41219;SDS011;26951;47.338;9.196;2022-09-29T15:57:49;2.33;;;1.80;;
41219;SDS011;26951;47.338;9.196;2022-09-29T16:00:41;1.80;;;1.65;;
41219;SDS011;26951;47.338;9.196;2022-09-29T16:03:36;2.45;;;2.08;;
41219;SDS011;26951;47.338;9.196;2022-09-29T16:06:33;2.05;;;1.85;;
41219;SDS011;26951;47.338;9.196;2022-09-29T16:09:20;1.95;;;1.75;;
41219;SDS011;26951;47.338;9.196;2022-09-29T16:12:05;2.50;;;1.60;;
41219;SDS011;26951;47.338;9.196;2022-09-29T16:14:52;2.13;;;1.40;;
41219;SDS011;26951;47.338;9.196;2022-09-29T16:17:39;1.45;;;1.35;;
41219;SDS011;26951;47.338;9.196;2022-09-29T16:20:30;1.40;;;1.30;;
41219;SDS011;26951;47.338;9.196;2022-09-29T16:23:20;2.13;;;1.92;;
41219;SDS011;26951;47.338;9.196;2022-09-29T16:26:09;2.17;;;1.67;;
41219;SDS011;26951;47.338;9.196;2022-09-29T16:29:24;1.67;;;1.55;;
41219;SDS011;26951;47.338;9.196;2022-09-29T16:38:26;2.10;;;1.90;;
41219;SDS011;26951;47.338;9.196;2022-09-29T16:44:03;2.00;;;1.73;;
41219;SDS011;26951;47.338;9.196;2022-09-29T16:46:54;2.42;;;2.10;;
41219;SDS011;26951;47.338;9.196;2022-09-29T16:49:48;2.63;;;1.67;;
41219;SDS011;26951;47.338;9.196;2022-09-29T16:52:41;3.17;;;2.00;;
41219;SDS011;26951;47.338;9.196;2022-09-29T16:55:28;2.67;;;1.95;;
41219;SDS011;26951;47.338;9.196;2022-09-29T16:58:12;3.15;;;2.35;;
41219;SDS011;26951;47.338;9.196;2022-09-29T17:00:57;1.88;;;1.67;;
41219;SDS011;26951;47.338;9.196;2022-09-29T17:03:41;2.20;;;2.00;;
41219;SDS011;26951;47.338;9.196;2022-09-29T17:06:26;2.95;;;1.85;;
41219;SDS011;26951;47.338;9.196;2022-09-29T17:09:18;2.08;;;1.77;;
41219;SDS011;26951;47.338;9.196;2022-09-29T17:12:07;2.30;;;2.00;;
41219;SDS011;26951;47.338;9.196;2022-09-29T17:14:55;2.10;;;1.90;;
41219;SDS011;26951;47.338;9.196;2022-09-29T17:17:39;2.33;;;2.00;;
41219;SDS011;26951;47.338;9.196;2022-09-29T17:20:26;2.30;;;1.90;;
41219;SDS011;26951;47.338;9.196;2022-09-29T17:23:14;2.47;;;2.28;;
41219;SDS011;26951;47.338;9.196;2022-09-29T17:25:58;2.95;;;2.45;;
41219;SDS011;26951;47.338;9.196;2022-09-29T17:29:02;2.53;;;2.33;;
41219;SDS011;26951;47.338;9.196;2022-09-29T17:31:47;3.22;;;2.10;;
41219;SDS011;26951;47.338;9.196;2022-09-29T17:34:32;2.38;;;2.15;;
41219;SDS011;26951;47.338;9.196;2022-09-29T17:37:16;2.80;;;2.53;;
41219;SDS011;26951;47.338;9.196;2022-09-29T17:40:04;2.90;;;2.38;;
41219;SDS011;26951;47.338;9.196;2022-09-29T17:43:13;4.10;;;2.40;;
41219;SDS011;26951;47.338;9.196;2022-09-29T17:45:58;2.37;;;2.17;;
41219;SDS011;26951;47.338;9.196;2022-09-29T17:48:43;2.60;;;2.40;;
41219;SDS011;26951;47.338;9.196;2022-09-29T17:51:27;2.45;;;1.98;;
41219;SDS011;26951;47.338;9.196;2022-09-29T17:54:11;3.92;;;2.13;;
41219;SDS011;26951;47.338;9.196;2022-09-29T17:56:55;2.40;;;2.10;;
41219;SDS011;26951;47.338;9.196;2022-09-29T17:59:39;2.95;;;2.10;;
41219;SDS011;26951;47.338;9.196;2022-09-29T18:02:23;3.60;;;2.50;;
41219;SDS011;26951;47.338;9.196;2022-09-29T18:05:07;2.40;;;2.20;;
41219;SDS011;26951;47.338;9.196;2022-09-29T18:07:54;3.75;;;2.30;;
41219;SDS011;26951;47.338;9.196;2022-09-29T18:13:28;2.55;;;2.20;;
41219;SDS011;26951;47.338;9.196;2022-09-29T18:16:17;2.70;;;2.40;;
41219;SDS011;26951;47.338;9.196;2022-09-29T18:19:09;2.58;;;2.30;;
41219;SDS011;26951;47.338;9.196;2022-09-29T18:21:59;2.42;;;2.22;;
41219;SDS011;26951;47.338;9.196;2022-09-29T18:24:45;3.03;;;2.60;;
41219;SDS011;26951;47.338;9.196;2022-09-29T18:27:30;2.65;;;2.42;;
41219;SDS011;26951;47.338;9.196;2022-09-29T18:33:02;2.85;;;2.50;;
41219;SDS011;26951;47.338;9.196;2022-09-29T18:35:50;3.33;;;3.03;;
41219;SDS011;26951;47.338;9.196;2022-09-29T18:38:36;2.85;;;2.55;;
41219;SDS011;26951;47.338;9.196;2022-09-29T18:41:20;2.55;;;2.20;;
41219;SDS011;26951;47.338;9.196;2022-09-29T18:44:10;3.00;;;2.58;;
41219;SDS011;26951;47.338;9.196;2022-09-29T18:46:56;3.28;;;2.35;;
41219;SDS011;26951;47.338;9.196;2022-09-29T18:49:40;2.83;;;1.85;;
41219;SDS011;26951;47.338;9.196;2022-09-29T18:52:25;4.68;;;2.30;;
41219;SDS011;26951;47.338;9.196;2022-09-29T18:55:10;2.90;;;2.28;;
41219;SDS011;26951;47.338;9.196;2022-09-29T18:57:54;2.33;;;2.10;;
41219;SDS011;26951;47.338;9.196;2022-09-29T19:00:41;2.30;;;2.10;;
41219;SDS011;26951;47.338;9.196;2022-09-29T19:03:27;3.47;;;2.10;;
41219;SDS011;26951;47.338;9.196;2022-09-29T19:06:13;2.67;;;2.33;;
41219;SDS011;26951;47.338;9.196;2022-09-29T19:09:01;2.58;;;1.90;;
41219;SDS011;26951;47.338;9.196;2022-09-29T19:11:45;3.00;;;2.45;;
41219;SDS011;26951;47.338;9.196;2022-09-29T19:14:29;2.50;;;2.17;;
41219;SDS011;26951;47.338;9.196;2022-09-29T19:17:16;2.35;;;2.15;;
41219;SDS011;26951;47.338;9.196;2022-09-29T19:20:00;2.78;;;2.42;;
41219;SDS011;26951;47.338;9.196;2022-09-29T19:22:44;2.47;;;2.25;;
41219;SDS011;26951;47.338;9.196;2022-09-29T19:25:31;3.22;;;2.60;;
41219;SDS011;26951;47.338;9.196;2022-09-29T19:28:17;2.70;;;2.17;;
41219;SDS011;26951;47.338;9.196;2022-09-29T19:31:07;2.45;;;2.25;;